sensor_id;sensor_type;location;lat;lon;timestamp;pressure;altitude;pressure_sealevel;temperature;humidity
34065;BME280;20339;49.754;20.158;2023-12-20T00:01:40;96108.40;;;8.32;38.46
34065;BME280;20339;49.754;20.158;2023-12-20T00:04:11;96106.02;;;8.44;38.18
34065;BME280;20339;49.754;20.158;2023-12-20T00:06:40;96109.62;;;8.42;38.48
34065;BME280;20339;49.754;20.158;2023-12-20T00:09:09;96110.58;;;8.31;38.04
34065;BME280;20339;49.754;20.158;2023-12-20T00:11:37;96102.00;;;8.51;36.87
34065;BME280;20339;49.754;20.158;2023-12-20T00:14:06;96093.88;;;8.67;36.44
34065;BME280;20339;49.754;20.158;2023-12-20T00:16:34;96093.56;;;8.62;36.92
34065;BME280;20339;49.754;20.158;2023-12-20T00:19:03;96093.63;;;8.61;35.98
34065;BME280;20339;49.754;20.158;2023-12-20T00:21:32;96090.34;;;8.67;36.47
34065;BME280;20339;49.754;20.158;2023-12-20T00:24:03;96079.38;;;8.64;36.05
34065;BME280;20339;49.754;20.158;2023-12-20T00:26:31;96078.75;;;8.68;35.88
34065;BME280;20339;49.754;20.158;2023-12-20T00:29:00;96069.16;;;8.71;35.54
34065;BME280;20339;49.754;20.158;2023-12-20T00:31:29;96058.92;;;8.76;35.68
34065;BME280;20339;49.754;20.158;2023-12-20T00:34:03;96048.14;;;8.80;35.22
34065;BME280;20339;49.754;20.158;2023-12-20T00:36:32;96051.48;;;8.83;34.76
34065;BME280;20339;49.754;20.158;2023-12-20T00:39:01;96044.59;;;8.87;34.87
34065;BME280;20339;49.754;20.158;2023-12-20T00:41:31;96043.64;;;8.85;34.89
34065;BME280;20339;49.754;20.158;2023-12-20T00:43:59;96040.36;;;8.85;35.14
34065;BME280;20339;49.754;20.158;2023-12-20T00:46:28;96036.61;;;8.80;35.08
34065;BME280;20339;49.754;20.158;2023-12-20T00:48:56;96029.80;;;8.80;34.94
34065;BME280;20339;49.754;20.158;2023-12-20T00:51:25;96029.11;;;8.75;35.25
34065;BME280;20339;49.754;20.158;2023-12-20T00:53:53;96030.48;;;8.66;35.51
34065;BME280;20339;49.754;20.158;2023-12-20T00:56:22;96035.22;;;8.67;35.26
34065;BME280;20339;49.754;20.158;2023-12-20T00:58:51;96035.63;;;8.68;35.53
34065;BME280;20339;49.754;20.158;2023-12-20T01:01:19;96031.71;;;8.69;35.09
34065;BME280;20339;49.754;20.158;2023-12-20T01:03:47;96032.67;;;8.74;35.29
34065;BME280;20339;49.754;20.158;2023-12-20T01:06:21;96027.88;;;8.71;35.28
34065;BME280;20339;49.754;20.158;2023-12-20T01:08:49;96026.94;;;8.70;35.48
34065;BME280;20339;49.754;20.158;2023-12-20T01:11:17;96031.59;;;8.64;35.46
34065;BME280;20339;49.754;20.158;2023-12-20T01:13:46;96020.10;;;8.63;35.40
34065;BME280;20339;49.754;20.158;2023-12-20T01:16:14;96013.30;;;8.61;35.47
34065;BME280;20339;49.754;20.158;2023-12-20T01:18:43;96022.04;;;8.57;35.57
34065;BME280;20339;49.754;20.158;2023-12-20T01:21:11;96021.25;;;8.53;35.48
34065;BME280;20339;49.754;20.158;2023-12-20T01:23:39;96029.16;;;8.50;35.82
34065;BME280;20339;49.754;20.158;2023-12-20T01:26:08;96027.27;;;8.41;36.36
34065;BME280;20339;49.754;20.158;2023-12-20T01:28:36;96023.81;;;8.29;36.26
34065;BME280;20339;49.754;20.158;2023-12-20T01:31:05;96023.41;;;8.26;36.14
34065;BME280;20339;49.754;20.158;2023-12-20T01:33:34;96026.38;;;8.25;36.22
34065;BME280;20339;49.754;20.158;2023-12-20T01:36:04;96019.92;;;8.21;36.48
34065;BME280;20339;49.754;20.158;2023-12-20T01:38:33;96011.20;;;8.21;36.00
34065;BME280;20339;49.754;20.158;2023-12-20T01:41:04;96005.10;;;8.24;36.17
34065;BME280;20339;49.754;20.158;2023-12-20T01:43:32;95997.50;;;8.24;35.56
34065;BME280;20339;49.754;20.158;2023-12-20T01:46:01;95993.13;;;8.28;35.53
34065;BME280;20339;49.754;20.158;2023-12-20T01:48:31;95977.48;;;8.25;35.63
34065;BME280;20339;49.754;20.158;2023-12-20T01:51:03;95973.39;;;8.22;35.50
34065;BME280;20339;49.754;20.158;2023-12-20T01:53:32;95955.52;;;8.25;34.99
34065;BME280;20339;49.754;20.158;2023-12-20T01:56:01;95961.52;;;8.24;35.20
34065;BME280;20339;49.754;20.158;2023-12-20T01:58:30;95953.58;;;8.18;35.45
34065;BME280;20339;49.754;20.158;2023-12-20T02:01:01;95956.38;;;8.10;35.58
34065;BME280;20339;49.754;20.158;2023-12-20T02:03:29;95950.27;;;8.02;35.69
34065;BME280;20339;49.754;20.158;2023-12-20T02:05:59;95933.47;;;7.98;35.62
34065;BME280;20339;49.754;20.158;2023-12-20T02:08:28;95935.84;;;7.99;35.36
34065;BME280;20339;49.754;20.158;2023-12-20T02:10:56;95934.80;;;7.96;35.36
34065;BME280;20339;49.754;20.158;2023-12-20T02:13:25;95940.66;;;7.93;35.41
34065;BME280;20339;49.754;20.158;2023-12-20T02:15:55;95936.20;;;7.94;34.82
34065;BME280;20339;49.754;20.158;2023-12-20T02:18:23;95924.16;;;7.95;34.73
34065;BME280;20339;49.754;20.158;2023-12-20T02:20:52;95925.64;;;7.99;34.12
34065;BME280;20339;49.754;20.158;2023-12-20T02:23:21;95924.58;;;8.02;34.44
34065;BME280;20339;49.754;20.158;2023-12-20T02:25:49;95926.48;;;8.00;34.56
34065;BME280;20339;49.754;20.158;2023-12-20T02:28:17;95928.36;;;7.91;34.91
34065;BME280;20339;49.754;20.158;2023-12-20T02:30:46;95922.18;;;7.85;35.02
34065;BME280;20339;49.754;20.158;2023-12-20T02:33:15;95914.55;;;7.76;35.34
34065;BME280;20339;49.754;20.158;2023-12-20T02:35:43;95912.98;;;7.63;35.61
34065;BME280;20339;49.754;20.158;2023-12-20T02:38:12;95914.67;;;7.60;35.51
34065;BME280;20339;49.754;20.158;2023-12-20T02:40:40;95917.77;;;7.70;34.79
34065;BME280;20339;49.754;20.158;2023-12-20T02:43:09;95925.93;;;7.80;35.15
34065;BME280;20339;49.754;20.158;2023-12-20T02:45:37;95922.04;;;7.71;35.56
34065;BME280;20339;49.754;20.158;2023-12-20T02:48:08;95926.98;;;7.62;35.93
34065;BME280;20339;49.754;20.158;2023-12-20T02:50:38;95922.30;;;7.58;36.00
34065;BME280;20339;49.754;20.158;2023-12-20T02:53:06;95923.95;;;7.49;36.30
34065;BME280;20339;49.754;20.158;2023-12-20T02:55:35;95908.56;;;7.39;36.44
34065;BME280;20339;49.754;20.158;2023-12-20T02:58:03;95911.90;;;7.31;36.64
34065;BME280;20339;49.754;20.158;2023-12-20T03:00:32;95908.67;;;7.24;36.89
34065;BME280;20339;49.754;20.158;2023-12-20T03:03:00;95906.98;;;7.24;36.56
34065;BME280;20339;49.754;20.158;2023-12-20T03:05:31;95906.13;;;7.26;36.39
34065;BME280;20339;49.754;20.158;2023-12-20T03:07:59;95902.59;;;7.26;36.55
34065;BME280;20339;49.754;20.158;2023-12-20T03:10:29;95901.25;;;7.28;36.19
34065;BME280;20339;49.754;20.158;2023-12-20T03:13:01;95896.04;;;7.37;35.86
34065;BME280;20339;49.754;20.158;2023-12-20T03:15:29;95886.54;;;7.42;35.69
34065;BME280;20339;49.754;20.158;2023-12-20T03:18:03;95894.71;;;7.43;36.02
34065;BME280;20339;49.754;20.158;2023-12-20T03:20:31;95891.94;;;7.41;35.82
34065;BME280;20339;49.754;20.158;2023-12-20T03:23:02;95895.86;;;7.30;36.14
34065;BME280;20339;49.754;20.158;2023-12-20T03:25:31;95902.52;;;7.21;36.30
34065;BME280;20339;49.754;20.158;2023-12-20T03:28:00;95908.92;;;7.19;36.40
34065;BME280;20339;49.754;20.158;2023-12-20T03:30:31;95903.80;;;7.11;36.74
34065;BME280;20339;49.754;20.158;2023-12-20T03:33:02;95903.92;;;7.06;36.50
34065;BME280;20339;49.754;20.158;2023-12-20T03:35:31;95904.91;;;7.09;36.73
34065;BME280;20339;49.754;20.158;2023-12-20T03:38:03;95910.13;;;6.99;37.35
34065;BME280;20339;49.754;20.158;2023-12-20T03:40:31;95923.00;;;6.87;37.65
34065;BME280;20339;49.754;20.158;2023-12-20T03:43:00;95923.00;;;6.74;37.91
34065;BME280;20339;49.754;20.158;2023-12-20T03:45:32;95920.30;;;6.74;37.76
34065;BME280;20339;49.754;20.158;2023-12-20T03:48:00;95916.41;;;6.78;37.90
34065;BME280;20339;49.754;20.158;2023-12-20T03:50:31;95910.52;;;6.86;37.62
34065;BME280;20339;49.754;20.158;2023-12-20T03:53:01;95915.88;;;6.98;37.29
34065;BME280;20339;49.754;20.158;2023-12-20T03:55:31;95913.59;;;7.05;37.51
34065;BME280;20339;49.754;20.158;2023-12-20T03:58:04;95913.98;;;7.10;37.42
34065;BME280;20339;49.754;20.158;2023-12-20T04:00:34;95906.73;;;7.12;37.25
34065;BME280;20339;49.754;20.158;2023-12-20T04:03:03;95906.27;;;7.22;37.26
34065;BME280;20339;49.754;20.158;2023-12-20T04:05:32;95908.30;;;7.30;37.22
34065;BME280;20339;49.754;20.158;2023-12-20T04:08:05;95910.45;;;7.35;37.29
34065;BME280;20339;49.754;20.158;2023-12-20T04:10:33;95902.14;;;7.38;37.45
34065;BME280;20339;49.754;20.158;2023-12-20T04:13:02;95906.64;;;7.43;37.49
34065;BME280;20339;49.754;20.158;2023-12-20T04:15:31;95903.09;;;7.46;37.90
34065;BME280;20339;49.754;20.158;2023-12-20T04:18:02;95897.18;;;7.47;38.22
34065;BME280;20339;49.754;20.158;2023-12-20T04:20:33;95895.34;;;7.47;38.36
34065;BME280;20339;49.754;20.158;2023-12-20T04:23:01;95887.46;;;7.48;38.44
34065;BME280;20339;49.754;20.158;2023-12-20T04:25:32;95886.81;;;7.56;38.54
34065;BME280;20339;49.754;20.158;2023-12-20T04:28:00;95879.19;;;7.58;38.63
34065;BME280;20339;49.754;20.158;2023-12-20T04:30:29;95890.11;;;7.61;38.87
34065;BME280;20339;49.754;20.158;2023-12-20T04:32:58;95895.39;;;7.64;39.01
34065;BME280;20339;49.754;20.158;2023-12-20T04:35:26;95871.64;;;7.66;39.06
34065;BME280;20339;49.754;20.158;2023-12-20T04:37:54;95876.52;;;7.69;39.24
34065;BME280;20339;49.754;20.158;2023-12-20T04:40:25;95871.52;;;7.73;39.60
34065;BME280;20339;49.754;20.158;2023-12-20T04:42:53;95872.26;;;7.75;39.72
34065;BME280;20339;49.754;20.158;2023-12-20T04:45:21;95882.31;;;7.78;39.96
34065;BME280;20339;49.754;20.158;2023-12-20T04:47:50;95875.69;;;7.80;40.06
34065;BME280;20339;49.754;20.158;2023-12-20T04:50:18;95879.80;;;7.85;40.06
34065;BME280;20339;49.754;20.158;2023-12-20T04:52:47;95879.98;;;7.84;40.35
34065;BME280;20339;49.754;20.158;2023-12-20T04:55:15;95881.98;;;7.83;40.49
34065;BME280;20339;49.754;20.158;2023-12-20T04:57:44;95881.15;;;7.82;40.61
34065;BME280;20339;49.754;20.158;2023-12-20T05:00:14;95887.77;;;7.82;40.81
34065;BME280;20339;49.754;20.158;2023-12-20T05:02:42;95891.95;;;7.79;41.17
34065;BME280;20339;49.754;20.158;2023-12-20T05:05:11;95898.13;;;7.79;41.18
34065;BME280;20339;49.754;20.158;2023-12-20T05:07:39;95901.96;;;7.75;41.52
34065;BME280;20339;49.754;20.158;2023-12-20T05:10:09;95907.98;;;7.71;41.61
34065;BME280;20339;49.754;20.158;2023-12-20T05:12:38;95899.90;;;7.69;41.85
34065;BME280;20339;49.754;20.158;2023-12-20T05:15:10;95907.35;;;7.67;42.08
34065;BME280;20339;49.754;20.158;2023-12-20T05:17:39;95900.43;;;7.68;42.12
34065;BME280;20339;49.754;20.158;2023-12-20T05:20:09;95887.55;;;7.67;42.18
34065;BME280;20339;49.754;20.158;2023-12-20T05:22:38;95883.93;;;7.66;42.36
34065;BME280;20339;49.754;20.158;2023-12-20T05:25:07;95871.80;;;7.65;42.61
34065;BME280;20339;49.754;20.158;2023-12-20T05:27:38;95879.60;;;7.66;42.58
34065;BME280;20339;49.754;20.158;2023-12-20T05:30:10;95885.22;;;7.64;42.73
34065;BME280;20339;49.754;20.158;2023-12-20T05:32:39;95883.38;;;7.64;42.86
34065;BME280;20339;49.754;20.158;2023-12-20T05:35:11;95880.16;;;7.63;43.11
34065;BME280;20339;49.754;20.158;2023-12-20T05:37:39;95879.77;;;7.57;43.45
34065;BME280;20339;49.754;20.158;2023-12-20T05:40:11;95880.67;;;7.53;43.51
34065;BME280;20339;49.754;20.158;2023-12-20T05:42:40;95873.17;;;7.45;43.54
34065;BME280;20339;49.754;20.158;2023-12-20T05:45:10;95871.32;;;7.40;43.40
34065;BME280;20339;49.754;20.158;2023-12-20T05:47:38;95866.88;;;7.36;43.61
34065;BME280;20339;49.754;20.158;2023-12-20T05:50:08;95867.23;;;7.33;43.84
34065;BME280;20339;49.754;20.158;2023-12-20T05:52:37;95862.42;;;7.32;44.08
34065;BME280;20339;49.754;20.158;2023-12-20T05:55:06;95865.54;;;7.30;44.10
34065;BME280;20339;49.754;20.158;2023-12-20T05:57:35;95864.60;;;7.29;44.22
34065;BME280;20339;49.754;20.158;2023-12-20T06:00:05;95868.16;;;7.26;44.48
34065;BME280;20339;49.754;20.158;2023-12-20T06:02:34;95863.82;;;7.23;44.90
34065;BME280;20339;49.754;20.158;2023-12-20T06:05:06;95863.67;;;7.19;45.08
34065;BME280;20339;49.754;20.158;2023-12-20T06:07:34;95852.40;;;7.18;45.58
34065;BME280;20339;49.754;20.158;2023-12-20T06:10:03;95847.39;;;7.18;46.02
34065;BME280;20339;49.754;20.158;2023-12-20T06:12:33;95843.77;;;7.16;46.29
34065;BME280;20339;49.754;20.158;2023-12-20T06:15:04;95840.23;;;7.14;46.83
34065;BME280;20339;49.754;20.158;2023-12-20T06:17:33;95844.73;;;7.14;47.30
34065;BME280;20339;49.754;20.158;2023-12-20T06:20:04;95843.41;;;7.13;47.93
34065;BME280;20339;49.754;20.158;2023-12-20T06:22:36;95843.31;;;7.13;48.65
34065;BME280;20339;49.754;20.158;2023-12-20T06:25:05;95840.13;;;7.09;49.20
34065;BME280;20339;49.754;20.158;2023-12-20T06:27:34;95841.55;;;7.09;50.07
34065;BME280;20339;49.754;20.158;2023-12-20T06:30:04;95841.08;;;7.10;50.60
34065;BME280;20339;49.754;20.158;2023-12-20T06:32:32;95849.92;;;7.05;51.05
34065;BME280;20339;49.754;20.158;2023-12-20T06:35:02;95846.48;;;7.02;51.04
34065;BME280;20339;49.754;20.158;2023-12-20T06:37:32;95846.89;;;6.98;50.84
34065;BME280;20339;49.754;20.158;2023-12-20T06:40:01;95852.02;;;6.95;50.66
34065;BME280;20339;49.754;20.158;2023-12-20T06:42:29;95855.45;;;6.96;50.85
34065;BME280;20339;49.754;20.158;2023-12-20T06:44:57;95857.77;;;6.96;51.59
34065;BME280;20339;49.754;20.158;2023-12-20T06:47:26;95861.46;;;6.95;51.55
34065;BME280;20339;49.754;20.158;2023-12-20T06:49:58;95864.27;;;6.93;51.94
34065;BME280;20339;49.754;20.158;2023-12-20T06:52:26;95865.89;;;6.84;52.52
34065;BME280;20339;49.754;20.158;2023-12-20T06:54:54;95871.59;;;6.73;52.91
34065;BME280;20339;49.754;20.158;2023-12-20T06:57:23;95863.35;;;6.68;53.47
34065;BME280;20339;49.754;20.158;2023-12-20T06:59:53;95863.10;;;6.66;53.68
34065;BME280;20339;49.754;20.158;2023-12-20T07:02:22;95864.76;;;6.62;54.67
34065;BME280;20339;49.754;20.158;2023-12-20T07:04:50;95873.65;;;6.62;54.91
34065;BME280;20339;49.754;20.158;2023-12-20T07:07:18;95871.08;;;6.59;55.13
34065;BME280;20339;49.754;20.158;2023-12-20T07:09:47;95875.36;;;6.57;55.28
34065;BME280;20339;49.754;20.158;2023-12-20T07:12:15;95878.58;;;6.54;55.81
34065;BME280;20339;49.754;20.158;2023-12-20T07:14:43;95879.30;;;6.56;56.27
34065;BME280;20339;49.754;20.158;2023-12-20T07:17:12;95880.67;;;6.56;56.22
34065;BME280;20339;49.754;20.158;2023-12-20T07:19:42;95881.28;;;6.52;56.53
34065;BME280;20339;49.754;20.158;2023-12-20T07:22:11;95885.55;;;6.47;56.69
34065;BME280;20339;49.754;20.158;2023-12-20T07:24:39;95879.04;;;6.49;56.89
34065;BME280;20339;49.754;20.158;2023-12-20T07:27:08;95878.13;;;6.51;56.86
34065;BME280;20339;49.754;20.158;2023-12-20T07:29:36;95878.38;;;6.53;56.80
34065;BME280;20339;49.754;20.158;2023-12-20T07:32:06;95885.48;;;6.55;57.02
34065;BME280;20339;49.754;20.158;2023-12-20T07:34:34;95881.38;;;6.53;57.25
34065;BME280;20339;49.754;20.158;2023-12-20T07:37:03;95878.70;;;6.50;57.32
34065;BME280;20339;49.754;20.158;2023-12-20T07:39:31;95882.55;;;6.47;57.40
34065;BME280;20339;49.754;20.158;2023-12-20T07:41:59;95884.98;;;6.30;57.84
34065;BME280;20339;49.754;20.158;2023-12-20T07:44:28;95892.86;;;5.91;59.34
34065;BME280;20339;49.754;20.158;2023-12-20T07:46:56;95891.45;;;5.51;60.62
34065;BME280;20339;49.754;20.158;2023-12-20T07:49:25;95897.02;;;5.21;61.49
34065;BME280;20339;49.754;20.158;2023-12-20T07:51:53;95904.84;;;4.98;62.31
34065;BME280;20339;49.754;20.158;2023-12-20T07:54:21;95910.48;;;4.85;62.57
34065;BME280;20339;49.754;20.158;2023-12-20T07:56:50;95914.13;;;4.74;63.23
34065;BME280;20339;49.754;20.158;2023-12-20T07:59:18;95916.16;;;4.67;64.12
34065;BME280;20339;49.754;20.158;2023-12-20T08:01:47;95919.14;;;4.52;65.15
34065;BME280;20339;49.754;20.158;2023-12-20T08:04:15;95919.45;;;4.40;65.67
34065;BME280;20339;49.754;20.158;2023-12-20T08:06:44;95917.00;;;4.34;65.86
34065;BME280;20339;49.754;20.158;2023-12-20T08:09:13;95919.42;;;4.35;66.01
34065;BME280;20339;49.754;20.158;2023-12-20T08:11:45;95925.33;;;4.48;66.16
34065;BME280;20339;49.754;20.158;2023-12-20T08:14:14;95921.73;;;4.59;65.93
34065;BME280;20339;49.754;20.158;2023-12-20T08:16:42;95919.61;;;4.64;65.98
34065;BME280;20339;49.754;20.158;2023-12-20T08:19:12;95927.35;;;4.70;66.11
34065;BME280;20339;49.754;20.158;2023-12-20T08:21:45;95926.88;;;4.70;65.79
34065;BME280;20339;49.754;20.158;2023-12-20T08:24:14;95926.05;;;4.62;65.88
34065;BME280;20339;49.754;20.158;2023-12-20T08:26:42;95926.19;;;4.54;66.18
34065;BME280;20339;49.754;20.158;2023-12-20T08:29:13;95935.27;;;4.47;66.91
34065;BME280;20339;49.754;20.158;2023-12-20T08:31:41;95935.74;;;4.43;67.18
34065;BME280;20339;49.754;20.158;2023-12-20T08:34:12;95936.19;;;4.36;67.56
34065;BME280;20339;49.754;20.158;2023-12-20T08:36:42;95935.61;;;4.27;68.27
34065;BME280;20339;49.754;20.158;2023-12-20T08:39:11;95934.66;;;4.18;68.51
34065;BME280;20339;49.754;20.158;2023-12-20T08:41:39;95937.38;;;4.13;68.89
34065;BME280;20339;49.754;20.158;2023-12-20T08:44:10;95931.59;;;4.11;69.42
34065;BME280;20339;49.754;20.158;2023-12-20T08:46:38;95927.27;;;4.07;69.84
34065;BME280;20339;49.754;20.158;2023-12-20T08:49:07;95924.17;;;4.01;70.40
34065;BME280;20339;49.754;20.158;2023-12-20T08:51:38;95919.50;;;3.97;71.59
34065;BME280;20339;49.754;20.158;2023-12-20T08:54:08;95921.86;;;3.93;72.37
34065;BME280;20339;49.754;20.158;2023-12-20T08:56:37;95925.15;;;3.90;73.36
34065;BME280;20339;49.754;20.158;2023-12-20T08:59:06;95927.38;;;3.86;73.86
34065;BME280;20339;49.754;20.158;2023-12-20T09:01:34;95934.20;;;3.85;74.18
34065;BME280;20339;49.754;20.158;2023-12-20T09:04:03;95928.90;;;3.85;74.38
34065;BME280;20339;49.754;20.158;2023-12-20T09:06:31;95923.27;;;3.90;74.69
34065;BME280;20339;49.754;20.158;2023-12-20T09:09:01;95923.08;;;3.99;75.28
34065;BME280;20339;49.754;20.158;2023-12-20T09:11:34;95919.38;;;4.12;75.98
34065;BME280;20339;49.754;20.158;2023-12-20T09:14:02;95910.94;;;4.36;77.87
34065;BME280;20339;49.754;20.158;2023-12-20T09:16:31;95921.51;;;4.52;78.29
34065;BME280;20339;49.754;20.158;2023-12-20T09:18:59;95930.25;;;4.60;77.91
34065;BME280;20339;49.754;20.158;2023-12-20T09:21:30;95925.79;;;4.62;77.44
34065;BME280;20339;49.754;20.158;2023-12-20T09:24:04;95926.88;;;4.66;77.48
34065;BME280;20339;49.754;20.158;2023-12-20T09:26:32;95932.13;;;4.66;78.33
34065;BME280;20339;49.754;20.158;2023-12-20T09:29:00;95923.56;;;4.65;78.32
34065;BME280;20339;49.754;20.158;2023-12-20T09:31:31;95910.54;;;4.65;77.71
34065;BME280;20339;49.754;20.158;2023-12-20T09:33:59;95895.42;;;4.66;77.95
34065;BME280;20339;49.754;20.158;2023-12-20T09:36:28;95901.30;;;4.68;77.54
34065;BME280;20339;49.754;20.158;2023-12-20T09:38:58;95902.05;;;4.70;77.61
34065;BME280;20339;49.754;20.158;2023-12-20T09:41:29;95905.98;;;4.71;77.51
34065;BME280;20339;49.754;20.158;2023-12-20T09:44:03;95908.41;;;4.73;77.29
34065;BME280;20339;49.754;20.158;2023-12-20T09:46:32;95903.67;;;4.75;77.24
34065;BME280;20339;49.754;20.158;2023-12-20T09:49:04;95900.79;;;4.77;77.37
34065;BME280;20339;49.754;20.158;2023-12-20T09:51:36;95892.42;;;4.80;77.39
34065;BME280;20339;49.754;20.158;2023-12-20T09:54:05;95894.31;;;4.84;77.51
34065;BME280;20339;49.754;20.158;2023-12-20T09:56:35;95893.48;;;4.86;77.93
34065;BME280;20339;49.754;20.158;2023-12-20T09:59:05;95894.73;;;4.89;78.20
34065;BME280;20339;49.754;20.158;2023-12-20T10:01:34;95886.75;;;4.90;78.02
34065;BME280;20339;49.754;20.158;2023-12-20T10:04:06;95887.13;;;4.91;78.48
34065;BME280;20339;49.754;20.158;2023-12-20T10:06:36;95873.78;;;4.91;79.93
34065;BME280;20339;49.754;20.158;2023-12-20T10:09:05;95876.98;;;4.89;80.11
34065;BME280;20339;49.754;20.158;2023-12-20T10:11:35;95868.31;;;4.85;80.29
34065;BME280;20339;49.754;20.158;2023-12-20T10:14:10;95875.61;;;4.82;80.27
34065;BME280;20339;49.754;20.158;2023-12-20T10:16:39;95864.52;;;4.78;80.50
34065;BME280;20339;49.754;20.158;2023-12-20T10:19:09;95869.07;;;4.76;81.00
34065;BME280;20339;49.754;20.158;2023-12-20T10:21:37;95871.22;;;4.74;81.01
34065;BME280;20339;49.754;20.158;2023-12-20T10:24:06;95870.23;;;4.72;81.00
34065;BME280;20339;49.754;20.158;2023-12-20T10:26:37;95865.65;;;4.72;81.17
34065;BME280;20339;49.754;20.158;2023-12-20T10:29:07;95870.80;;;4.73;81.28
34065;BME280;20339;49.754;20.158;2023-12-20T10:31:40;95867.81;;;4.72;81.71
34065;BME280;20339;49.754;20.158;2023-12-20T10:34:10;95879.58;;;4.70;81.87
34065;BME280;20339;49.754;20.158;2023-12-20T10:36:41;95874.95;;;4.68;82.14
34065;BME280;20339;49.754;20.158;2023-12-20T10:39:10;95877.31;;;4.69;82.30
34065;BME280;20339;49.754;20.158;2023-12-20T10:41:41;95880.98;;;4.68;82.51
34065;BME280;20339;49.754;20.158;2023-12-20T10:44:14;95857.15;;;4.66;82.84
34065;BME280;20339;49.754;20.158;2023-12-20T10:46:44;95858.20;;;4.65;83.00
34065;BME280;20339;49.754;20.158;2023-12-20T10:49:19;95847.17;;;4.65;83.07
34065;BME280;20339;49.754;20.158;2023-12-20T10:51:48;95850.56;;;4.64;83.04
34065;BME280;20339;49.754;20.158;2023-12-20T10:54:17;95850.77;;;4.63;83.10
34065;BME280;20339;49.754;20.158;2023-12-20T10:56:45;95855.96;;;4.63;83.25
34065;BME280;20339;49.754;20.158;2023-12-20T10:59:17;95854.16;;;4.62;83.31
34065;BME280;20339;49.754;20.158;2023-12-20T11:01:49;95857.06;;;4.62;83.67
34065;BME280;20339;49.754;20.158;2023-12-20T11:04:23;95851.55;;;4.63;83.95
34065;BME280;20339;49.754;20.158;2023-12-20T11:06:56;95865.83;;;4.61;83.95
34065;BME280;20339;49.754;20.158;2023-12-20T11:09:31;95861.89;;;4.58;84.13
34065;BME280;20339;49.754;20.158;2023-12-20T11:12:06;95864.55;;;4.53;84.92
34065;BME280;20339;49.754;20.158;2023-12-20T11:14:44;95870.14;;;4.48;85.03
34065;BME280;20339;49.754;20.158;2023-12-20T11:17:14;95873.80;;;4.43;85.67
34065;BME280;20339;49.754;20.158;2023-12-20T11:20:07;95869.59;;;4.37;85.52
34065;BME280;20339;49.754;20.158;2023-12-20T11:22:51;95862.73;;;4.32;86.24
34065;BME280;20339;49.754;20.158;2023-12-20T11:25:20;95845.35;;;4.27;86.79
34065;BME280;20339;49.754;20.158;2023-12-20T11:28:10;95835.08;;;4.24;86.85
34065;BME280;20339;49.754;20.158;2023-12-20T11:30:46;95857.38;;;4.20;86.67
34065;BME280;20339;49.754;20.158;2023-12-20T11:33:16;95859.11;;;4.16;87.00
34065;BME280;20339;49.754;20.158;2023-12-20T11:35:47;95868.02;;;4.12;87.27
34065;BME280;20339;49.754;20.158;2023-12-20T11:38:15;95867.03;;;4.07;87.51
34065;BME280;20339;49.754;20.158;2023-12-20T11:40:47;95870.16;;;4.03;87.63
34065;BME280;20339;49.754;20.158;2023-12-20T11:43:30;95870.98;;;4.00;87.33
34065;BME280;20339;49.754;20.158;2023-12-20T11:46:04;95877.44;;;3.98;87.28
34065;BME280;20339;49.754;20.158;2023-12-20T11:48:35;95879.69;;;3.96;87.40
34065;BME280;20339;49.754;20.158;2023-12-20T11:51:09;95882.20;;;3.95;87.34
34065;BME280;20339;49.754;20.158;2023-12-20T11:53:38;95885.34;;;3.95;87.56
34065;BME280;20339;49.754;20.158;2023-12-20T11:56:08;95887.77;;;3.93;88.20
34065;BME280;20339;49.754;20.158;2023-12-20T11:58:38;95887.97;;;3.90;88.16
34065;BME280;20339;49.754;20.158;2023-12-20T12:01:07;95875.21;;;3.86;88.23
34065;BME280;20339;49.754;20.158;2023-12-20T12:03:36;95877.09;;;3.84;89.28
34065;BME280;20339;49.754;20.158;2023-12-20T12:06:05;95881.67;;;3.80;89.34
34065;BME280;20339;49.754;20.158;2023-12-20T12:08:37;95881.44;;;3.77;88.95
34065;BME280;20339;49.754;20.158;2023-12-20T12:11:06;95884.16;;;3.78;88.62
34065;BME280;20339;49.754;20.158;2023-12-20T12:13:34;95887.98;;;3.76;88.83
34065;BME280;20339;49.754;20.158;2023-12-20T12:16:05;95894.52;;;3.74;88.78
34065;BME280;20339;49.754;20.158;2023-12-20T12:18:41;95899.29;;;3.72;89.01
34065;BME280;20339;49.754;20.158;2023-12-20T12:21:09;95899.02;;;3.70;89.30
34065;BME280;20339;49.754;20.158;2023-12-20T12:23:38;95900.96;;;3.70;88.96
34065;BME280;20339;49.754;20.158;2023-12-20T12:26:07;95891.79;;;3.71;88.89
34065;BME280;20339;49.754;20.158;2023-12-20T12:28:40;95888.44;;;3.71;89.05
34065;BME280;20339;49.754;20.158;2023-12-20T12:31:16;95889.39;;;3.73;88.91
34065;BME280;20339;49.754;20.158;2023-12-20T12:33:44;95886.85;;;3.71;88.97
34065;BME280;20339;49.754;20.158;2023-12-20T12:36:13;95890.89;;;3.69;89.10
34065;BME280;20339;49.754;20.158;2023-12-20T12:38:43;95886.53;;;3.68;88.79
34065;BME280;20339;49.754;20.158;2023-12-20T12:41:14;95880.99;;;3.71;88.82
34065;BME280;20339;49.754;20.158;2023-12-20T12:43:45;95876.73;;;3.69;88.72
34065;BME280;20339;49.754;20.158;2023-12-20T12:46:16;95876.79;;;3.70;88.71
34065;BME280;20339;49.754;20.158;2023-12-20T12:48:44;95874.59;;;3.71;88.60
34065;BME280;20339;49.754;20.158;2023-12-20T12:51:14;95869.05;;;3.74;88.67
34065;BME280;20339;49.754;20.158;2023-12-20T12:53:43;95866.02;;;3.74;88.65
34065;BME280;20339;49.754;20.158;2023-12-20T12:56:13;95861.20;;;3.77;88.69
34065;BME280;20339;49.754;20.158;2023-12-20T12:58:43;95864.87;;;3.77;88.76
34065;BME280;20339;49.754;20.158;2023-12-20T13:01:11;95867.64;;;3.77;88.89
34065;BME280;20339;49.754;20.158;2023-12-20T13:03:40;95868.11;;;3.76;89.07
34065;BME280;20339;49.754;20.158;2023-12-20T13:06:09;95871.89;;;3.76;89.07
34065;BME280;20339;49.754;20.158;2023-12-20T13:08:37;95877.52;;;3.78;89.09
34065;BME280;20339;49.754;20.158;2023-12-20T13:11:06;95881.17;;;3.77;89.21
34065;BME280;20339;49.754;20.158;2023-12-20T13:13:37;95874.30;;;3.74;89.61